Time;durP1;ratioP1;P1;durP2;ratioP2;P2;SDS_P1;SDS_P2;PMS_P1;PMS_P2;Temp;Humidity;BMP_temperature;BMP_pressure;BME280_temperature;BME280_humidity;BME280_pressure;Samples;Min_cycle;Max_cycle;Signal;HPM_P1;HPM_P2
2022/07/17 06:26:32;;;;;;;7.35;3.92;;;;;;;17.39;53.34;97385.94;2096412;28;20561;-65
2022/07/17 06:27:34;;;;;;;6.95;3.53;;;;;;;17.60;53.11;97391.72;2067327;28;20222;-66
2022/07/17 06:28:36;;;;;;;6.53;3.80;;;;;;;17.73;52.34;97397.09;2066076;28;20198;-66
2022/07/17 06:29:37;;;;;;;10.57;3.97;;;;;;;17.87;52.31;97393.59;2067925;28;20194;-66
2022/07/17 06:30:46;;;;;;;5.35;3.45;;;;;;;17.84;51.89;97399.91;2069857;28;20217;-66
2022/07/17 06:31:47;;;;;;;5.38;3.20;;;;;;;17.69;52.71;97396.44;2068387;28;20232;-66
2022/07/17 06:32:49;;;;;;;6.78;4.05;;;;;;;17.91;51.82;97401.22;2067072;28;20202;-66
2022/07/17 06:33:50;;;;;;;27.10;3.75;;;;;;;18.04;51.19;97398.72;2066649;28;20214;-66
2022/07/17 06:34:52;;;;;;;12.05;3.85;;;;;;;18.19;51.11;97399.50;2066719;28;20198;-67
2022/07/17 07:04:34;;;;;;;3.90;2.20;;;;;;;19.82;44.75;97410.84;2125360;27;21033;-67
2022/07/17 07:05:35;;;;;;;12.73;2.38;;;;;;;20.00;44.99;97413.16;2120738;28;20644;-67
2022/07/17 07:06:37;;;;;;;9.13;3.40;;;;;;;20.27;44.87;97412.97;2119500;28;20548;-69
2022/07/17 07:07:38;;;;;;;5.95;2.40;;;;;;;20.56;44.43;97418.78;2094361;28;20219;-69
2022/07/17 07:08:40;;;;;;;3.92;2.08;;;;;;;20.77;43.14;97414.72;2085072;28;20200;-70
2022/07/17 07:09:41;;;;;;;3.63;1.92;;;;;;;20.52;43.43;97392.63;2085500;28;20211;-69
2022/07/17 07:10:44;;;;;;;6.55;2.95;;;;;;;20.66;43.04;97418.13;2095025;28;20211;-70
2022/07/17 07:11:45;;;;;;;6.28;2.08;;;;;;;20.68;43.61;97422.38;2091419;28;20198;-68
2022/07/17 07:12:47;;;;;;;5.65;2.08;;;;;;;20.69;43.94;97417.91;2095017;28;20553;-69
2022/07/17 07:13:48;;;;;;;8.90;2.05;;;;;;;20.60;43.81;97418.59;2095106;28;20195;-70
2022/07/17 07:40:28;;;;;;;4.47;2.13;;;;;;;22.52;39.45;97428.75;2100572;27;21222;-67
2022/07/17 07:41:30;;;;;;;9.52;2.20;;;;;;;22.55;38.60;97425.84;2091852;28;20384;-67
2022/07/17 07:42:33;;;;;;;5.57;2.00;;;;;;;22.69;38.00;97411.41;2085500;28;20312;-70
2022/07/17 07:43:35;;;;;;;4.25;1.85;;;;;;;22.95;37.67;97422.56;2086429;28;20203;-68
2022/07/17 07:44:37;;;;;;;6.75;1.92;;;;;;;22.78;37.69;97420.47;2086512;28;20200;-68
2022/07/17 07:45:38;;;;;;;6.82;2.00;;;;;;;22.85;38.32;97415.47;2082447;28;20232;-68
2022/07/17 07:46:40;;;;;;;9.27;2.33;;;;;;;23.11;37.67;97413.31;2083056;28;20837;-67
2022/07/17 07:47:46;;;;;;;3.97;1.85;;;;;;;23.22;37.38;97423.91;2075159;28;20213;-68
2022/07/17 07:48:48;;;;;;;4.35;1.85;;;;;;;22.69;38.42;97415.88;2075890;28;20685;-68
2022/07/17 07:49:50;;;;;;;4.57;2.10;;;;;;;22.50;38.70;97420.91;2077514;28;20205;-68
2022/07/17 07:50:51;;;;;;;5.55;2.00;;;;;;;22.12;39.59;97410.66;2075578;28;20650;-68
2022/07/17 07:51:53;;;;;;;5.75;1.80;;;;;;;21.74;40.76;97403.88;2075393;28;20200;-69
2022/07/17 08:18:22;;;;;;;5.10;2.13;;;;;;;23.77;36.79;97429.03;2084758;28;20565;-68
2022/07/17 08:19:23;;;;;;;6.28;2.22;;;;;;;24.09;35.58;97435.25;2078712;28;20197;-68
2022/07/17 08:20:25;;;;;;;4.35;2.13;;;;;;;22.80;37.29;97429.16;2078968;28;20861;-69
2022/07/17 08:21:26;;;;;;;4.50;1.90;;;;;;;23.43;36.99;97431.91;2078789;28;20866;-68
2022/07/17 08:22:28;;;;;;;3.53;1.90;;;;;;;24.09;35.89;97433.41;2071250;28;20233;-69
2022/07/17 08:23:50;;;;;;;3.83;1.98;;;;;;;24.44;35.09;97431.28;2085407;28;20235;-69
2022/07/17 08:24:52;;;;;;;3.50;2.17;;;;;;;24.54;34.95;97436.66;2080474;28;20205;-68
2022/07/17 08:25:54;;;;;;;15.32;2.25;;;;;;;24.80;34.71;97438.81;2070547;28;20198;-68
2022/07/17 08:26:55;;;;;;;4.78;2.05;;;;;;;24.88;34.47;97430.97;2067723;28;20209;-68
2022/07/17 08:27:57;;;;;;;4.03;1.88;;;;;;;24.99;34.26;97433.50;2062115;28;20225;-67
2022/07/17 08:28:58;;;;;;;10.73;2.67;;;;;;;24.88;34.76;97433.63;2062381;28;20198;-67
2022/07/17 08:30:01;;;;;;;5.05;2.03;;;;;;;24.81;34.47;97433.38;2062640;28;20217;-68
2022/07/17 08:31:03;;;;;;;4.90;2.22;;;;;;;25.02;34.64;97430.53;2062137;28;20285;-67
2022/07/17 08:32:05;;;;;;;3.47;1.95;;;;;;;25.19;33.84;97430.81;2060569;28;20222;-67
2022/07/17 08:33:08;;;;;;;4.95;2.28;;;;;;;25.21;33.65;97432.38;2062539;28;20228;-68
2022/07/17 08:59:44;;;;;;;5.35;2.05;;;;;;;25.98;31.31;97448.44;2085055;28;20562;-67
2022/07/17 09:00:46;;;;;;;8.35;1.63;;;;;;;26.29;30.26;97447.34;2079115;28;20207;-68
2022/07/17 09:01:48;;;;;;;2.75;2.03;;;;;;;26.21;30.16;97440.91;2080384;28;20248;-68
2022/07/17 09:02:57;;;;;;;3.65;2.00;;;;;;;26.07;30.48;97446.75;2073447;28;20196;-68
2022/07/17 09:04:05;;;;;;;10.05;2.10;;;;;;;26.06;30.91;97447.72;2071387;28;20811;-68
2022/07/17 09:05:08;;;;;;;2.85;1.70;;;;;;;26.23;30.82;97438.06;2072804;28;20801;-68
2022/07/17 09:06:22;;;;;;;13.02;2.10;;;;;;;26.42;30.26;97438.97;2073310;28;20214;-68
2022/07/17 09:07:23;;;;;;;10.18;1.60;;;;;;;26.61;28.92;97448.72;2074604;28;20239;-68
2022/07/17 09:08:25;;;;;;;2.72;1.85;;;;;;;26.22;29.63;97447.94;2077459;28;20201;-68
2022/07/17 09:09:28;;;;;;;5.63;1.73;;;;;;;26.43;29.57;97446.00;2071161;28;20190;-68
2022/07/17 09:10:38;;;;;;;2.85;1.63;;;;;;;26.69;28.88;97449.66;2074881;28;20193;-68
2022/07/17 09:11:54;;;;;;;3.67;1.60;;;;;;;26.83;28.63;97445.66;2074603;28;20192;-68
2022/07/17 09:12:55;;;;;;;17.80;2.20;;;;;;;26.55;29.06;97448.34;2074837;28;20200;-68
2022/07/17 09:13:57;;;;;;;3.67;1.77;;;;;;;26.81;29.12;97450.31;2075428;28;20287;-68
2022/07/17 09:14:58;;;;;;;9.60;1.73;;;;;;;26.81;28.45;97449.47;2074292;28;20201;-68
2022/07/17 09:16:10;;;;;;;4.18;1.83;;;;;;;26.79;28.37;97452.31;2074630;28;20201;-68
2022/07/17 09:17:12;;;;;;;3.28;1.52;;;;;;;26.70;28.94;97443.31;2071806;28;20360;-68
2022/07/17 09:18:15;;;;;;;7.47;1.73;;;;;;;26.89;28.52;97450.41;2072516;28;20207;-68
2022/07/17 09:19:31;;;;;;;8.80;2.15;;;;;;;27.14;28.60;97453.31;2070328;28;20216;-68
2022/07/17 09:46:51;;;;;;;4.13;1.25;;;;;;;26.88;27.34;97435.31;2086877;28;20781;-67
2022/07/17 09:47:53;;;;;;;4.60;1.75;;;;;;;27.24;26.85;97445.19;2086967;28;20255;-67
2022/07/17 09:48:59;;;;;;;2.85;1.60;;;;;;;27.48;26.64;97441.91;2087073;28;20729;-67
2022/07/17 09:50:03;;;;;;;10.05;1.30;;;;;;;27.65;26.59;97444.69;2085023;28;20193;-68
2022/07/17 09:51:04;;;;;;;2.58;1.10;;;;;;;27.68;25.69;97437.19;2083746;28;20204;-68
2022/07/17 09:52:05;;;;;;;3.63;1.38;;;;;;;27.74;25.68;97445.59;2086463;28;20246;-68
2022/07/17 09:53:09;;;;;;;4.03;1.20;;;;;;;27.64;24.81;97443.00;2087017;28;20204;-68
2022/07/17 09:54:10;;;;;;;4.90;1.38;;;;;;;27.64;25.45;97453.72;2087214;28;20642;-68
2022/07/17 09:55:14;;;;;;;5.18;1.40;;;;;;;28.12;25.18;97451.53;2086991;28;20250;-68
2022/07/17 09:56:36;;;;;;;1.88;1.00;;;;;;;28.22;25.22;97451.44;2086624;28;20694;-69
2022/07/17 09:57:41;;;;;;;2.70;1.20;;;;;;;28.18;25.55;97446.38;2086761;28;20346;-68
2022/07/17 09:58:51;;;;;;;15.82;2.13;;;;;;;28.26;24.99;97453.63;2078105;28;20231;-68
2022/07/17 09:59:55;;;;;;;4.60;1.50;;;;;;;27.46;26.35;97454.59;2072463;28;20229;-68
2022/07/17 10:00:59;;;;;;;5.90;1.60;;;;;;;27.78;25.51;97455.00;2086444;28;20196;-68
2022/07/17 10:02:01;;;;;;;4.22;1.52;;;;;;;28.24;24.56;97458.31;2086576;28;20703;-68
2022/07/17 10:03:04;;;;;;;2.47;1.13;;;;;;;28.49;24.46;97450.34;2086962;28;20555;-68
2022/07/17 10:04:06;;;;;;;4.80;1.67;;;;;;;28.13;24.50;97434.44;2086764;28;20204;-68
2022/07/17 10:05:11;;;;;;;2.03;1.10;;;;;;;28.18;23.82;97449.06;2086802;28;20251;-68
2022/07/17 10:06:13;;;;;;;3.33;1.50;;;;;;;26.90;25.24;97451.25;2086784;28;20542;-68
2022/07/17 10:07:15;;;;;;;3.63;1.38;;;;;;;27.61;25.67;97452.22;2086371;28;20220;-68
2022/07/17 10:08:16;;;;;;;3.75;1.73;;;;;;;27.91;25.51;97457.25;2086911;28;20574;-68
2022/07/17 10:09:18;;;;;;;2.75;1.27;;;;;;;28.18;25.04;97462.47;2086934;28;20652;-68
2022/07/17 10:10:20;;;;;;;4.45;1.48;;;;;;;26.49;26.40;97454.28;2086892;28;20208;-69
2022/07/17 10:11:24;;;;;;;4.05;1.60;;;;;;;25.89;27.67;97442.13;2086883;28;20196;-68
2022/07/17 10:12:26;;;;;;;2.65;1.40;;;;;;;25.59;27.54;97433.31;2086425;28;20743;-68
2022/07/17 10:40:19;;;;;;;5.97;1.65;;;;;;;28.74;24.01;97423.59;2086244;28;21465;-67
2022/07/17 10:41:20;;;;;;;1.90;1.30;;;;;;;28.98;23.23;97420.94;2084350;28;20596;-69
2022/07/17 10:42:38;;;;;;;2.95;1.50;;;;;;;29.19;22.26;97416.91;2077188;28;20585;-69
2022/07/17 10:43:44;;;;;;;5.05;1.50;;;;;;;28.56;23.36;97419.16;2069010;28;20224;-69
2022/07/17 10:44:45;;;;;;;4.15;1.67;;;;;;;27.41;23.72;97421.22;2071389;28;20323;-69
2022/07/17 10:45:47;;;;;;;4.55;1.40;;;;;;;28.01;24.02;97423.09;2072388;28;20205;-68
2022/07/17 10:46:49;;;;;;;5.63;1.30;;;;;;;28.78;23.31;97420.41;2073127;28;20232;-69
2022/07/17 10:48:00;;;;;;;2.20;1.05;;;;;;;29.32;23.22;97422.69;2074169;28;20190;-69
2022/07/17 10:49:03;;;;;;;4.38;1.65;;;;;;;29.64;22.89;97420.94;2073156;28;20193;-68
2022/07/17 10:50:05;;;;;;;3.78;1.38;;;;;;;28.91;22.96;97419.09;2073811;28;20644;-68
2022/07/17 10:51:07;;;;;;;3.80;1.30;;;;;;;27.39;24.57;97421.38;2073884;28;20197;-68
2022/07/17 10:52:09;;;;;;;2.75;1.20;;;;;;;28.37;24.11;97422.97;2073072;28;20224;-68
2022/07/17 10:53:15;;;;;;;9.52;1.25;;;;;;;29.24;22.28;97425.34;2073566;28;20197;-69
2022/07/17 10:54:33;;;;;;;3.17;1.13;;;;;;;28.43;22.55;97421.47;2073196;28;20196;-69
2022/07/17 10:55:41;;;;;;;5.88;1.40;;;;;;;29.12;21.97;97421.31;2074745;28;20206;-69
2022/07/17 10:56:44;;;;;;;9.98;1.40;;;;;;;29.63;22.13;97424.66;2075601;28;20213;-69
2022/07/17 10:57:47;;;;;;;1.80;1.00;;;;;;;28.88;20.92;97417.56;2073384;28;20197;-68
2022/07/17 10:58:50;;;;;;;3.40;1.02;;;;;;;29.04;21.47;97416.75;2075676;28;20198;-69
2022/07/17 10:59:52;;;;;;;9.60;1.20;;;;;;;28.98;22.18;97420.13;2074084;28;20209;-69
2022/07/17 11:01:17;;;;;;;2.53;1.55;;;;;;;29.17;21.74;97418.94;2075096;28;20759;-69
2022/07/17 11:02:28;;;;;;;3.30;1.45;;;;;;;29.30;21.47;97416.59;2072245;28;20217;-70
2022/07/17 11:03:41;;;;;;;2.38;1.20;;;;;;;28.49;21.97;97423.50;2072397;28;20209;-69
2022/07/17 11:04:43;;;;;;;7.57;1.55;;;;;;;28.00;22.97;97421.44;2074118;28;20196;-69
2022/07/17 11:05:47;;;;;;;3.20;1.42;;;;;;;27.02;24.58;97417.88;2074565;28;20248;-69
2022/07/17 11:06:50;;;;;;;1.95;1.00;;;;;;;26.91;24.59;97418.09;2074731;28;20197;-69
2022/07/17 11:08:01;;;;;;;12.20;1.40;;;;;;;27.93;23.44;97417.69;2072972;28;20308;-70
2022/07/17 11:09:05;;;;;;;4.97;1.30;;;;;;;26.68;24.57;97415.00;2081667;28;20197;-69
2022/07/17 11:10:12;;;;;;;5.20;2.05;;;;;;;26.57;25.00;97418.72;2091205;28;20647;-70
2022/07/17 11:11:15;;;;;;;6.45;1.02;;;;;;;27.90;23.76;97412.66;2072695;28;20197;-69
2022/07/17 11:12:32;;;;;;;5.18;1.55;;;;;;;28.93;22.42;97423.28;2068739;28;20244;-69
2022/07/17 11:13:34;;;;;;;2.63;1.15;;;;;;;28.84;23.00;97422.44;2073458;28;20198;-70
2022/07/17 11:41:47;;;;;;;2.75;1.23;;;;;;;28.89;22.33;97407.69;2083180;28;20561;-71
2022/07/17 11:42:59;;;;;;;4.00;1.67;;;;;;;30.06;20.99;97408.25;2064986;28;20244;-69
2022/07/17 11:44:02;;;;;;;3.20;1.10;;;;;;;30.77;20.54;97412.84;2064410;28;20197;-69
2022/07/17 11:45:04;;;;;;;7.10;1.63;;;;;;;30.22;20.52;97411.91;2063943;28;20201;-69
2022/07/17 11:46:06;;;;;;;2.47;1.40;;;;;;;30.37;19.91;97412.00;2066822;28;20194;-69
2022/07/17 11:47:08;;;;;;;3.85;1.10;;;;;;;30.35;20.02;97409.50;2065156;28;20222;-69
2022/07/17 11:48:10;;;;;;;6.28;1.67;;;;;;;30.87;20.04;97413.44;2062591;28;20194;-69
2022/07/17 11:49:30;;;;;;;4.93;1.40;;;;;;;31.17;20.00;97410.06;2062633;28;20206;-70
2022/07/17 11:50:32;;;;;;;2.85;1.25;;;;;;;31.53;20.04;97412.94;2065172;28;20769;-69
2022/07/17 11:51:42;;;;;;;4.15;1.33;;;;;;;31.77;19.11;97408.38;2065830;28;20195;-69
2022/07/17 11:52:50;;;;;;;3.30;1.30;;;;;;;32.24;19.39;97412.56;2073688;28;20218;-69
2022/07/17 11:53:52;;;;;;;3.60;1.20;;;;;;;31.87;17.95;97408.06;2076175;28;20248;-69
2022/07/17 11:54:56;;;;;;;2.83;1.10;;;;;;;31.62;18.78;97397.50;2076334;28;20200;-68
2022/07/17 11:55:58;;;;;;;3.47;1.60;;;;;;;32.18;18.21;97402.50;2073973;28;20918;-70
2022/07/17 11:57:01;;;;;;;2.00;1.20;;;;;;;31.97;18.31;97402.41;2072788;28;20447;-70
2022/07/17 11:58:03;;;;;;;2.53;1.37;;;;;;;31.57;18.62;97400.75;2075941;28;20434;-69
2022/07/17 11:59:06;;;;;;;3.20;1.53;;;;;;;32.09;18.73;97400.91;2072538;28;20459;-69
2022/07/17 12:00:08;;;;;;;1.87;1.23;;;;;;;32.46;18.34;97409.09;2075461;28;20434;-69
2022/07/17 12:01:10;;;;;;;4.77;1.37;;;;;;;32.55;18.27;97407.94;2073615;28;20454;-68
2022/07/17 12:02:14;;;;;;;3.83;1.30;;;;;;;31.19;17.82;97408.03;2073656;28;20978;-69
2022/07/17 12:03:25;;;;;;;3.37;1.20;;;;;;;31.01;18.98;97406.44;2072622;28;20795;-69
2022/07/17 12:04:28;;;;;;;2.77;1.20;;;;;;;31.78;18.14;97410.00;2073755;28;20910;-69
2022/07/17 12:05:32;;;;;;;4.93;1.23;;;;;;;31.12;17.66;97399.78;2070552;28;20980;-69
2022/07/17 12:06:33;;;;;;;3.33;1.17;;;;;;;29.29;19.55;97395.28;2070517;28;20432;-69
2022/07/17 12:07:45;;;;;;;5.70;1.23;;;;;;;31.12;18.72;97396.28;2071380;28;20466;-68
2022/07/17 12:08:51;;;;;;;1.90;1.00;;;;;;;31.81;17.14;97403.41;2072489;28;20510;-69
2022/07/17 12:09:53;;;;;;;2.53;1.10;;;;;;;32.22;16.63;97401.09;2074094;28;20431;-68
2022/07/17 12:11:10;;;;;;;2.43;1.13;;;;;;;32.24;16.92;97409.03;2074048;28;20453;-68
2022/07/17 12:12:25;;;;;;;6.87;1.20;;;;;;;30.95;18.16;97399.88;2067998;28;20952;-68
2022/07/17 12:13:38;;;;;;;1.87;1.17;;;;;;;31.22;17.42;97410.34;2075761;28;20937;-68
2022/07/17 12:14:57;;;;;;;5.80;1.20;;;;;;;31.90;17.20;97394.22;2070438;28;20454;-68
2022/07/17 12:15:59;;;;;;;3.33;1.00;;;;;;;32.20;17.30;97402.31;2069813;28;20431;-70
2022/07/17 12:17:04;;;;;;;3.20;1.30;;;;;;;32.36;16.17;97396.69;2072707;28;20450;-69
2022/07/17 12:18:19;;;;;;;3.70;1.00;;;;;;;32.39;16.62;97399.03;2073804;28;20578;-70
2022/07/17 12:19:23;;;;;;;5.93;1.10;;;;;;;31.84;16.41;97403.06;2073703;28;20426;-71
2022/07/17 12:20:25;;;;;;;2.70;1.10;;;;;;;32.33;16.45;97402.50;2074139;28;20510;-70
2022/07/17 12:21:27;;;;;;;1.50;1.00;;;;;;;31.56;16.98;97393.66;2073466;28;20482;-69
2022/07/17 12:22:29;;;;;;;1.70;1.10;;;;;;;30.88;17.83;97392.72;2073252;28;20466;-69
2022/07/17 12:23:40;;;;;;;2.17;1.10;;;;;;;31.46;17.90;97395.81;2073859;28;20485;-69
2022/07/17 12:24:44;;;;;;;4.53;1.20;;;;;;;32.48;17.36;97401.63;2075548;28;20476;-69
2022/07/17 12:52:44;;;;;;;2.37;1.20;;;;;;;33.50;14.69;97399.78;2100355;27;20560;-68
2022/07/17 12:53:46;;;;;;;3.30;1.10;;;;;;;33.60;14.96;97392.13;2094451;28;20464;-67
2022/07/17 12:54:47;;;;;;;2.30;1.07;;;;;;;33.76;14.50;97399.09;2095571;28;20420;-66
2022/07/17 12:55:49;;;;;;;2.00;1.10;;;;;;;33.95;13.91;97394.03;2095563;28;21123;-67
2022/07/17 12:56:51;;;;;;;1.80;1.10;;;;;;;30.71;15.59;97392.00;2090385;28;21098;-66
2022/07/17 12:57:52;;;;;;;1.80;1.03;;;;;;;30.32;16.23;97393.69;2078693;28;20430;-68
2022/07/17 12:58:54;;;;;;;3.63;1.20;;;;;;;29.37;17.65;97389.03;2078686;28;20427;-67
2022/07/17 13:00:04;;;;;;;3.50;1.30;;;;;;;30.60;17.32;97385.13;2078698;28;20930;-67
2022/07/17 13:01:06;;;;;;;2.87;1.10;;;;;;;29.08;17.72;97396.59;2078716;28;20434;-68
2022/07/17 13:02:09;;;;;;;4.60;1.00;;;;;;;28.95;18.26;97397.09;2074231;28;20456;-68
2022/07/17 13:03:11;;;;;;;5.43;1.20;;;;;;;30.85;17.42;97393.06;2070332;28;20427;-68
2022/07/17 13:04:13;;;;;;;2.50;1.13;;;;;;;32.10;16.19;97386.38;2069950;28;20577;-68
2022/07/17 13:05:15;;;;;;;4.40;1.03;;;;;;;31.29;16.07;97392.44;2070555;28;20486;-68
2022/07/17 13:06:16;;;;;;;2.17;1.10;;;;;;;32.46;15.88;97393.72;2070434;28;20447;-68
2022/07/17 13:07:18;;;;;;;2.10;1.00;;;;;;;33.19;15.61;97392.81;2069988;28;20470;-68
2022/07/17 13:08:20;;;;;;;2.00;0.80;;;;;;;33.58;14.88;97388.78;2070561;28;20454;-69
2022/07/17 13:09:21;;;;;;;3.43;1.37;;;;;;;32.40;14.93;97392.63;2070131;28;20427;-68
2022/07/17 13:10:23;;;;;;;2.13;1.20;;;;;;;31.95;15.47;97394.50;2070654;28;20772;-68
2022/07/17 13:11:24;;;;;;;3.00;1.10;;;;;;;31.37;14.56;97388.81;2069674;28;20431;-68
2022/07/17 13:12:26;;;;;;;3.77;1.20;;;;;;;31.43;15.29;97388.91;2068714;28;20471;-69
2022/07/17 13:13:29;;;;;;;4.13;1.20;;;;;;;31.77;15.54;97372.41;2070442;28;20419;-67
2022/07/17 13:14:31;;;;;;;4.67;1.30;;;;;;;31.90;15.40;97384.25;2070495;28;20938;-68
2022/07/17 13:15:32;;;;;;;4.27;1.33;;;;;;;31.34;16.06;97386.47;2070541;28;20431;-69
2022/07/17 13:16:34;;;;;;;1.43;0.80;;;;;;;31.56;15.34;97377.47;2069368;28;20523;-68
2022/07/17 13:17:37;;;;;;;2.07;1.20;;;;;;;31.78;15.92;97383.03;2069896;28;20546;-69
2022/07/17 13:18:39;;;;;;;1.87;1.10;;;;;;;32.13;16.44;97383.28;2069711;28;20434;-69
2022/07/17 13:19:41;;;;;;;2.97;1.10;;;;;;;33.08;15.91;97377.94;2070305;28;20435;-67
2022/07/17 13:20:43;;;;;;;3.03;1.10;;;;;;;33.55;15.36;97381.06;2068374;28;20929;-70
2022/07/17 13:21:44;;;;;;;1.70;1.00;;;;;;;33.75;15.62;97383.06;2070019;28;20427;-68
2022/07/17 13:22:46;;;;;;;2.77;1.30;;;;;;;33.67;15.38;97387.63;2070363;28;20423;-69
2022/07/17 13:23:47;;;;;;;19.33;1.60;;;;;;;33.73;15.73;97377.03;2070234;28;20427;-68
2022/07/17 13:24:49;;;;;;;4.63;1.17;;;;;;;34.27;15.50;97388.97;2069540;28;20515;-69
2022/07/17 13:25:50;;;;;;;3.20;1.13;;;;;;;33.49;16.04;97379.97;2070308;28;20438;-70
2022/07/17 13:26:52;;;;;;;6.00;1.37;;;;;;;33.21;16.06;97379.94;2069244;28;20435;-68
2022/07/17 13:27:53;;;;;;;2.97;1.73;;;;;;;33.63;15.74;97380.06;2069497;28;20423;-68
2022/07/17 13:28:55;;;;;;;3.50;1.30;;;;;;;32.95;16.18;97377.81;2070423;28;20436;-68
2022/07/17 13:29:57;;;;;;;9.33;6.73;;;;;;;33.48;16.25;97377.47;2069832;28;20420;-69
2022/07/17 13:30:59;;;;;;;3.13;1.47;;;;;;;33.09;16.14;97381.47;2069237;28;20439;-68
2022/07/17 13:32:01;;;;;;;3.23;1.00;;;;;;;33.58;16.04;97379.84;2069810;28;20455;-68
2022/07/17 13:33:03;;;;;;;6.73;1.30;;;;;;;34.11;15.72;97371.22;2070841;28;20455;-68
2022/07/17 13:34:04;;;;;;;4.23;1.63;;;;;;;34.57;15.55;97370.56;2069924;28;20423;-68
2022/07/17 13:35:06;;;;;;;3.30;1.20;;;;;;;34.60;15.30;97367.47;2070384;28;20830;-69
2022/07/17 13:36:08;;;;;;;2.63;1.00;;;;;;;34.76;14.99;97377.09;2070306;28;20442;-68
2022/07/17 13:37:09;;;;;;;1.90;1.10;;;;;;;34.79;14.23;97376.69;2069781;28;20459;-69
2022/07/17 13:38:11;;;;;;;4.27;1.30;;;;;;;34.68;14.56;97371.88;2070442;28;20780;-69
2022/07/17 13:39:12;;;;;;;3.90;1.30;;;;;;;34.36;15.07;97377.00;2070472;28;20467;-69
2022/07/17 13:40:14;;;;;;;1.30;1.00;;;;;;;32.17;16.12;97370.25;2069610;28;20465;-69
2022/07/17 13:41:15;;;;;;;2.93;1.27;;;;;;;33.13;15.38;97366.53;2069022;28;20906;-69
2022/07/17 13:42:17;;;;;;;2.90;1.40;;;;;;;33.16;15.25;97369.69;2075428;28;20539;-69
2022/07/17 13:43:18;;;;;;;5.50;1.40;;;;;;;31.41;16.68;97374.78;2077875;28;20845;-68
2022/07/17 13:44:20;;;;;;;4.30;1.30;;;;;;;31.49;16.40;97367.63;2069692;28;20930;-68
2022/07/17 13:45:22;;;;;;;2.03;1.10;;;;;;;32.16;16.63;97349.66;2069512;28;20518;-68
2022/07/17 13:46:24;;;;;;;2.47;1.20;;;;;;;33.12;16.05;97364.88;2070423;28;20431;-68
2022/07/17 13:47:25;;;;;;;3.03;1.13;;;;;;;33.82;16.35;97367.72;2069768;28;21063;-69
2022/07/17 13:48:27;;;;;;;3.60;1.10;;;;;;;33.70;14.52;97362.84;2070181;28;20523;-69
2022/07/17 13:49:29;;;;;;;1.70;1.20;;;;;;;33.21;15.00;97364.53;2070255;28;20427;-69
2022/07/17 13:50:31;;;;;;;2.33;1.20;;;;;;;33.35;15.70;97361.97;2077688;28;20480;-69
2022/07/17 13:51:34;;;;;;;2.50;1.20;;;;;;;34.26;15.18;97363.78;2077066;28;20496;-69
2022/07/17 13:52:37;;;;;;;2.80;1.10;;;;;;;34.45;15.31;97361.34;2068095;28;20557;-68
2022/07/17 13:53:39;;;;;;;3.70;1.40;;;;;;;34.97;14.83;97370.69;2070006;28;20455;-69
2022/07/17 14:14:41;;;;;;;14.10;1.60;;;;;;;34.77;15.26;97358.94;2085177;28;20577;-67
2022/07/17 14:15:43;;;;;;;5.63;1.37;;;;;;;34.96;14.99;97363.59;2077839;28;20511;-68
2022/07/17 14:16:44;;;;;;;3.33;1.57;;;;;;;34.72;15.29;97361.44;2077551;28;20542;-68
2022/07/17 14:17:46;;;;;;;7.17;1.27;;;;;;;34.91;15.11;97366.09;2070850;28;20434;-68
2022/07/17 14:18:59;;;;;;;4.60;1.30;;;;;;;34.85;14.79;97363.34;2069678;28;20431;-69
2022/07/17 14:20:01;;;;;;;3.50;1.13;;;;;;;34.97;14.28;97367.97;2069834;28;20422;-68
2022/07/17 14:21:03;;;;;;;3.13;1.07;;;;;;;33.97;14.62;97354.88;2068490;28;20519;-68
2022/07/17 14:22:04;;;;;;;2.33;1.20;;;;;;;34.32;14.89;97354.00;2069440;28;20452;-69
2022/07/17 14:23:06;;;;;;;1.73;1.23;;;;;;;34.64;14.68;97351.59;2070708;28;20430;-67
2022/07/17 14:24:08;;;;;;;5.93;1.10;;;;;;;35.09;14.35;97348.38;2071080;28;20451;-68
2022/07/17 14:25:09;;;;;;;2.17;1.10;;;;;;;34.99;14.19;97360.47;2069988;28;20434;-67
2022/07/17 14:26:11;;;;;;;2.80;1.20;;;;;;;35.13;13.95;97357.75;2069731;28;20431;-68
2022/07/17 14:27:12;;;;;;;1.50;1.00;;;;;;;34.99;14.06;97352.34;2069815;28;20455;-69
2022/07/17 14:28:14;;;;;;;1.93;1.30;;;;;;;34.91;14.34;97357.94;2070273;28;20435;-69
2022/07/17 14:29:15;;;;;;;7.33;1.10;;;;;;;35.12;13.88;97354.22;2070721;28;20453;-68
2022/07/17 14:30:17;;;;;;;2.10;1.33;;;;;;;35.24;13.46;97353.59;2070266;28;20431;-69
2022/07/17 14:31:18;;;;;;;2.17;1.27;;;;;;;34.95;13.67;97352.94;2070066;28;20442;-69
2022/07/17 14:32:20;;;;;;;2.40;1.20;;;;;;;34.97;14.19;97357.13;2070083;28;20455;-69
2022/07/17 14:33:21;;;;;;;4.30;1.30;;;;;;;35.18;13.40;97357.13;2070426;28;20507;-69
2022/07/17 14:34:23;;;;;;;8.53;6.97;;;;;;;35.21;13.89;97354.00;2069826;28;21012;-68
2022/07/17 14:35:24;;;;;;;9.20;7.60;;;;;;;34.77;14.03;97348.09;2069784;28;20431;-68
2022/07/17 14:36:26;;;;;;;10.87;7.63;;;;;;;35.18;14.68;97349.81;2070284;28;20860;-68
2022/07/17 14:37:29;;;;;;;17.53;11.43;;;;;;;34.98;15.14;97356.09;2069964;28;20451;-68
2022/07/17 14:38:30;;;;;;;9.23;7.60;;;;;;;34.99;14.86;97352.34;2070283;28;20432;-68
2022/07/17 14:39:32;;;;;;;8.53;2.27;;;;;;;35.08;14.47;97352.94;2070352;28;20962;-68
2022/07/17 14:40:33;;;;;;;2.73;1.40;;;;;;;34.97;14.54;97354.41;2070326;28;20428;-68
2022/07/17 14:41:35;;;;;;;3.20;1.27;;;;;;;34.84;14.90;97348.94;2070373;28;20565;-68
2022/07/17 14:42:37;;;;;;;4.60;1.23;;;;;;;34.19;15.03;97352.06;2069903;28;20463;-69
2022/07/17 14:43:38;;;;;;;1.53;1.10;;;;;;;34.88;14.43;97347.53;2070314;28;20487;-70
2022/07/17 14:44:43;;;;;;;2.20;1.33;;;;;;;34.52;14.81;97345.94;2070372;28;20427;-70
2022/07/17 14:45:45;;;;;;;1.87;0.97;;;;;;;34.63;14.69;97342.66;2078006;28;21048;-70
2022/07/17 14:46:46;;;;;;;1.77;1.10;;;;;;;34.80;15.04;97347.69;2076661;28;20483;-69
2022/07/17 14:47:48;;;;;;;2.70;1.73;;;;;;;35.17;15.01;97348.16;2069919;28;20423;-70
2022/07/17 14:48:50;;;;;;;8.90;1.30;;;;;;;35.41;14.82;97348.59;2069831;28;20450;-70
2022/07/17 14:49:52;;;;;;;2.07;1.00;;;;;;;35.63;13.77;97352.75;2069474;28;20423;-70
2022/07/17 14:50:53;;;;;;;3.03;1.13;;;;;;;34.88;14.79;97347.53;2069621;28;20492;-70
2022/07/17 14:51:55;;;;;;;1.63;1.00;;;;;;;35.23;14.78;97349.22;2069764;28;20954;-70
2022/07/17 14:52:56;;;;;;;3.67;1.30;;;;;;;35.32;14.61;97350.66;2070162;28;20454;-70
2022/07/17 14:53:58;;;;;;;2.13;0.90;;;;;;;34.37;14.77;97340.69;2070397;28;20431;-70
2022/07/17 14:55:00;;;;;;;4.17;1.00;;;;;;;35.03;14.80;97347.31;2070125;28;20545;-70
2022/07/17 14:56:01;;;;;;;2.40;1.00;;;;;;;34.84;14.24;97343.50;2070250;28;20419;-70
2022/07/17 14:57:03;;;;;;;2.37;1.33;;;;;;;34.11;14.98;97342.25;2069777;28;20969;-70
2022/07/17 14:58:04;;;;;;;2.43;1.00;;;;;;;34.62;14.75;97343.69;2069867;28;20449;-70
2022/07/17 14:59:06;;;;;;;3.57;1.00;;;;;;;34.87;14.54;97345.84;2069526;28;20431;-70
2022/07/17 15:00:08;;;;;;;6.43;1.07;;;;;;;34.80;14.58;97336.84;2069674;28;20820;-69
2022/07/17 15:01:10;;;;;;;1.53;1.00;;;;;;;34.87;14.33;97340.44;2069626;28;20426;-70
2022/07/17 15:02:11;;;;;;;2.70;0.93;;;;;;;35.11;14.44;97341.69;2069849;28;20551;-69
2022/07/17 15:03:13;;;;;;;1.50;1.03;;;;;;;34.69;14.08;97334.72;2067283;28;20454;-70
2022/07/17 15:04:14;;;;;;;2.07;1.10;;;;;;;33.72;14.49;97332.03;2069216;28;20420;-69
2022/07/17 15:05:16;;;;;;;2.17;0.97;;;;;;;34.37;14.47;97332.56;2070198;28;20431;-69
2022/07/17 15:06:18;;;;;;;8.03;1.10;;;;;;;34.55;14.48;97331.16;2070364;28;20420;-69
2022/07/17 15:07:21;;;;;;;3.23;1.00;;;;;;;34.69;14.53;97330.16;2069574;28;20455;-69
2022/07/17 15:08:22;;;;;;;1.80;1.10;;;;;;;34.84;13.84;97332.66;2070135;28;20511;-69
2022/07/17 15:09:24;;;;;;;1.50;1.00;;;;;;;35.07;14.16;97337.72;2070242;28;20427;-70
2022/07/17 15:10:25;;;;;;;2.40;1.03;;;;;;;34.89;14.00;97329.38;2070214;28;20785;-69
2022/07/17 15:11:27;;;;;;;1.70;1.10;;;;;;;31.21;16.46;97323.22;2070132;28;20435;-69
2022/07/17 15:12:28;;;;;;;1.53;1.00;;;;;;;32.27;15.67;97326.78;2069508;28;20443;-70
2022/07/17 15:13:30;;;;;;;3.93;1.67;;;;;;;32.52;15.78;97328.09;2069858;28;20423;-69
2022/07/17 15:14:31;;;;;;;5.13;0.90;;;;;;;33.27;15.66;97333.16;2069713;28;20463;-69
2022/07/17 15:15:33;;;;;;;4.03;1.20;;;;;;;33.59;15.66;97327.38;2070336;28;20424;-70
2022/07/17 15:16:34;;;;;;;2.43;1.20;;;;;;;33.84;15.57;97328.59;2069343;28;20423;-69
2022/07/17 15:17:36;;;;;;;2.33;1.23;;;;;;;33.13;15.97;97325.97;2069085;28;20816;-70